Time;durP1;ratioP1;P1;durP2;ratioP2;P2;SDS_P1;SDS_P2;PMS_P1;PMS_P2;Temp;Humidity;BMP_temperature;BMP_pressure;BME280_temperature;BME280_humidity;BME280_pressure;Samples;Min_cycle;Max_cycle;Signal;HPM_P1;HPM_P2
2022/01/08 00:00:17;;;;;;;9.35;5.57;;;1.90;70.20;;;0.88;55.38;94636.00;5054386;28;20218;-85
2022/01/08 00:02:44;;;;;;;8.27;5.50;;;1.90;70.20;;;0.88;54.91;94630.84;5054487;28;20227;-85
2022/01/08 00:05:12;;;;;;;9.73;5.38;;;1.90;70.20;;;0.87;55.25;94637.00;5054190;28;20223;-83
2022/01/08 00:07:39;;;;;;;9.98;5.68;;;1.90;70.20;;;0.82;55.30;94628.81;5042453;28;20231;-83
2022/01/08 00:10:07;;;;;;;9.30;5.50;;;1.90;70.20;;;0.88;55.50;94639.44;5044029;28;20218;-83
2022/01/08 00:12:34;;;;;;;9.07;5.55;;;1.90;70.20;;;0.86;55.55;94630.19;5031612;28;20208;-86
2022/01/08 00:15:03;;;;;;;10.95;5.60;;;1.90;70.20;;;0.86;55.57;94636.16;5045685;28;20215;-86
2022/01/08 00:17:30;;;;;;;9.82;5.78;;;1.90;70.20;;;0.83;55.54;94638.22;5031151;28;20196;-83
2022/01/08 00:19:58;;;;;;;11.20;6.43;;;1.90;70.20;;;0.83;55.55;94635.63;5037400;28;20226;-83
2022/01/08 00:22:25;;;;;;;9.13;5.65;;;1.90;70.20;;;0.82;55.74;94639.16;5036885;28;20196;-84
2022/01/08 00:24:53;;;;;;;11.88;5.68;;;2.00;70.30;;;0.77;55.68;94618.94;5037767;28;20258;-83
2022/01/08 00:27:21;;;;;;;9.82;5.95;;;1.90;70.20;;;0.82;55.40;94624.50;5074332;28;20187;-83
2022/01/08 00:29:49;;;;;;;9.15;5.90;;;1.90;70.20;;;0.77;55.48;94622.31;5041317;28;20219;-83
2022/01/08 00:32:17;;;;;;;11.43;5.95;;;1.90;70.20;;;0.81;55.72;94622.88;5057731;28;20206;-83
2022/01/08 00:34:45;;;;;;;8.93;5.75;;;1.90;70.20;;;0.82;55.84;94615.91;5040677;28;20243;-83
2022/01/08 00:37:12;;;;;;;10.73;6.30;;;1.90;70.20;;;0.82;55.97;94609.00;5040875;28;20210;-84
2022/01/08 00:39:40;;;;;;;10.07;5.72;;;1.90;70.20;;;0.79;55.87;94602.34;5074122;28;20451;-84
2022/01/08 00:42:07;;;;;;;10.32;6.05;;;1.90;70.20;;;0.80;55.80;94598.78;5040597;28;20655;-84
2022/01/08 00:44:34;;;;;;;11.25;5.53;;;1.90;70.20;;;0.81;55.77;94604.78;5057771;28;20240;-84
2022/01/08 00:47:02;;;;;;;8.73;5.25;;;1.90;70.20;;;0.83;55.64;94607.22;5057592;28;20219;-84
2022/01/08 00:49:29;;;;;;;9.48;5.78;;;1.90;70.20;;;0.82;55.93;94603.00;5074034;28;20203;-84
2022/01/08 00:51:56;;;;;;;9.00;6.05;;;1.90;70.30;;;0.85;56.00;94600.16;5057576;28;20188;-84
2022/01/08 00:54:24;;;;;;;9.63;6.18;;;1.90;70.40;;;0.87;56.10;94606.81;5056241;28;20199;-84
2022/01/08 00:56:51;;;;;;;9.85;5.40;;;1.90;70.50;;;0.89;55.98;94598.91;5040097;28;20233;-84
2022/01/08 00:59:18;;;;;;;10.07;5.88;;;1.90;70.60;;;0.91;55.95;94590.06;5056946;28;20286;-84
2022/01/08 01:01:45;;;;;;;9.60;5.70;;;1.90;70.70;;;0.94;56.12;94600.13;5056750;28;20195;-85
2022/01/08 01:04:13;;;;;;;9.57;6.25;;;1.90;70.70;;;0.97;56.54;94590.50;5057237;28;20230;-84
2022/01/08 01:06:40;;;;;;;9.93;5.70;;;1.90;70.90;;;1.00;56.23;94587.63;5040310;28;20223;-84
2022/01/08 01:09:07;;;;;;;7.32;5.38;;;2.00;70.90;;;0.99;56.09;94579.06;5040571;28;20194;-84
2022/01/08 01:11:35;;;;;;;8.70;5.53;;;2.00;71.00;;;1.06;56.15;94589.63;5040550;28;20223;-84
2022/01/08 01:14:02;;;;;;;7.10;4.75;;;2.00;71.00;;;1.05;56.13;94583.66;5039915;28;20259;-84
2022/01/08 01:16:30;;;;;;;9.38;5.22;;;2.00;70.90;;;1.05;56.03;94578.50;5037691;28;20219;-84
2022/01/08 01:18:59;;;;;;;8.52;5.10;;;2.10;70.90;;;1.09;56.27;94582.41;5056949;28;20198;-84
2022/01/08 01:21:27;;;;;;;8.20;5.55;;;2.10;70.90;;;1.02;56.27;94568.44;5039853;28;20635;-84
2022/01/08 01:23:55;;;;;;;9.35;5.72;;;2.10;71.00;;;1.08;56.35;94573.03;5056630;28;20207;-84
2022/01/08 01:26:26;;;;;;;9.02;5.68;;;2.10;71.80;;;1.09;56.23;94579.03;5039487;28;20686;-84
2022/01/08 01:29:00;;;;;;;9.80;5.93;;;2.10;71.00;;;1.09;56.49;94572.09;5032337;28;20195;-83
2022/01/08 01:42:52;;;;;;;9.48;6.32;;;2.10;71.10;;;1.12;56.59;94558.06;5055538;28;20233;-85
2022/01/08 01:47:48;;;;;;;9.13;5.93;;;2.20;71.20;;;1.05;56.69;94547.50;5070719;28;20199;-84
2022/01/08 01:50:15;;;;;;;10.75;6.28;;;2.20;71.10;;;1.07;56.70;94553.31;5053407;28;20218;-85
2022/01/08 01:52:42;;;;;;;8.15;5.88;;;2.20;71.10;;;1.06;56.69;94553.47;5054391;28;20199;-85
2022/01/08 01:55:09;;;;;;;8.93;5.78;;;2.20;71.10;;;1.02;56.60;94550.34;5071034;28;20286;-85
2022/01/08 01:57:37;;;;;;;10.55;6.07;;;2.10;71.00;;;0.99;56.82;94549.81;5054992;28;20195;-85
2022/01/08 02:00:07;;;;;;;8.30;5.90;;;2.10;71.00;;;0.94;56.75;94551.06;5055538;28;20272;-85
2022/01/08 02:02:39;;;;;;;8.13;5.45;;;2.10;71.10;;;0.94;56.97;94551.06;5055472;28;20275;-85
2022/01/08 02:05:08;;;;;;;9.95;6.53;;;2.10;71.10;;;0.93;56.97;94552.03;5054838;28;20219;-85
2022/01/08 02:07:35;;;;;;;11.10;6.95;;;2.00;71.20;;;0.92;57.05;94547.81;5038371;28;20195;-85
2022/01/08 02:10:03;;;;;;;10.07;6.85;;;2.10;71.30;;;0.88;57.24;94543.91;5033938;28;20309;-85
2022/01/08 02:12:34;;;;;;;10.20;6.30;;;2.00;71.40;;;0.93;57.17;94546.88;5038566;28;20196;-85
2022/01/08 02:15:03;;;;;;;11.68;8.50;;;2.00;71.50;;;0.92;57.15;94542.66;5054513;28;20723;-84
2022/01/08 02:17:30;;;;;;;10.27;6.57;;;2.00;71.40;;;0.88;57.17;94541.31;5036167;28;20295;-84
2022/01/08 02:19:57;;;;;;;9.02;6.05;;;2.00;71.40;;;0.87;56.95;94538.88;5053024;28;20220;-83
2022/01/08 02:22:25;;;;;;;10.20;6.07;;;2.00;71.40;;;0.91;56.96;94553.13;5052889;28;20185;-85
2022/01/08 02:24:52;;;;;;;8.77;5.28;;;2.00;71.50;;;0.90;57.06;94552.28;5020062;28;20697;-85
2022/01/08 02:27:19;;;;;;;8.00;5.32;;;2.00;71.50;;;0.91;57.07;94548.75;5037267;28;20216;-84
2022/01/08 02:29:48;;;;;;;8.75;5.65;;;2.00;71.60;;;0.93;57.36;94543.47;5039639;28;20220;-83
2022/01/08 02:32:19;;;;;;;10.13;6.20;;;2.00;71.70;;;0.95;57.37;94531.22;5056339;28;20298;-85
2022/01/08 02:34:48;;;;;;;8.10;5.50;;;2.00;71.70;;;0.93;57.08;94526.22;5039901;28;20658;-85
2022/01/08 02:37:18;;;;;;;8.10;5.55;;;2.00;71.70;;;0.95;57.22;94520.88;5072224;28;20768;-85
2022/01/08 02:39:48;;;;;;;10.27;6.13;;;2.00;71.70;;;0.93;57.37;94517.66;5056105;28;20308;-85
2022/01/08 02:42:19;;;;;;;9.07;6.10;;;2.00;71.70;;;0.97;57.33;94515.59;5056230;28;20238;-84
2022/01/08 02:44:49;;;;;;;9.68;6.70;;;2.00;71.80;;;0.99;57.45;94518.84;5056317;28;20318;-85
2022/01/08 02:47:21;;;;;;;9.10;6.70;;;2.00;71.80;;;1.00;57.46;94512.72;5055536;28;20252;-85
2022/01/08 02:49:52;;;;;;;8.55;5.80;;;2.00;71.70;;;1.00;57.55;94515.31;5071629;28;20275;-85
2022/01/08 02:52:23;;;;;;;10.07;5.82;;;2.00;71.80;;;1.01;57.52;94512.56;5040250;28;20203;-85
2022/01/08 02:54:51;;;;;;;8.40;5.30;;;2.10;71.80;;;1.05;57.60;94510.53;5056097;28;20669;-84
2022/01/08 02:57:18;;;;;;;8.30;5.60;;;2.00;71.90;;;1.04;57.31;94499.38;5038683;28;20195;-85
2022/01/08 02:59:47;;;;;;;6.95;5.13;;;2.10;72.00;;;1.10;57.45;94514.31;5038931;28;20215;-85
2022/01/08 03:02:14;;;;;;;7.05;5.10;;;2.10;72.00;;;1.17;57.41;94511.16;5039412;28;20295;-85
2022/01/08 03:04:42;;;;;;;9.30;5.43;;;2.10;72.10;;;1.19;57.04;94504.88;5051693;28;20222;-85
2022/01/08 03:07:10;;;;;;;7.20;5.13;;;2.10;72.10;;;1.20;57.21;94501.34;5052224;28;20219;-85
2022/01/08 03:09:40;;;;;;;8.50;5.00;;;2.20;72.10;;;1.26;57.34;94505.94;5051613;28;20265;-85
2022/01/08 03:12:09;;;;;;;7.55;5.22;;;2.20;72.10;;;1.30;57.28;94508.25;5036368;28;20673;-85
2022/01/08 03:14:36;;;;;;;10.65;5.43;;;2.20;72.20;;;1.28;57.58;94493.69;5035011;28;20216;-85
2022/01/08 03:17:04;;;;;;;7.75;5.20;;;2.20;72.10;;;1.34;57.37;94502.63;5055633;28;20240;-85
2022/01/08 03:19:34;;;;;;;9.38;5.43;;;2.20;72.10;;;1.37;57.35;94488.63;5055693;28;20202;-85
2022/01/08 03:22:03;;;;;;;8.45;5.22;;;2.30;72.20;;;1.37;57.47;94492.00;5039415;28;20199;-85
2022/01/08 03:24:30;;;;;;;8.55;5.15;;;2.30;72.10;;;1.36;57.55;94482.63;5055540;28;20199;-85
2022/01/08 03:26:58;;;;;;;7.10;4.85;;;2.40;72.10;;;1.38;57.75;94483.28;5055565;28;20684;-85
2022/01/08 03:29:26;;;;;;;6.53;5.03;;;2.40;72.10;;;1.38;57.18;94475.53;5055497;28;20206;-85
2022/01/08 03:31:54;;;;;;;7.07;5.03;;;2.30;71.90;;;1.34;57.40;94476.78;5038985;28;20722;-86
2022/01/08 03:34:21;;;;;;;7.45;5.20;;;2.50;72.10;;;1.32;57.33;94467.53;5034972;28;20219;-85
2022/01/08 03:36:48;;;;;;;7.80;5.28;;;2.40;72.10;;;1.37;57.21;94466.16;5052244;28;20196;-85
2022/01/08 03:39:16;;;;;;;6.57;4.57;;;2.40;72.10;;;1.34;57.30;94463.06;5052191;28;20196;-85
2022/01/08 03:41:44;;;;;;;7.78;4.72;;;2.40;72.10;;;1.34;57.35;94455.31;5058343;28;20203;-86
2022/01/08 03:44:11;;;;;;;7.68;5.13;;;2.40;72.10;;;1.42;57.25;94470.91;5055448;28;20219;-85
2022/01/08 03:46:39;;;;;;;7.40;5.60;;;2.40;72.10;;;1.42;57.16;94461.38;5039078;28;20275;-86
2022/01/08 03:51:46;;;;;;;7.65;5.03;;;2.40;72.10;;;1.42;57.59;94456.19;5055917;28;20664;-85
2022/01/08 03:54:13;;;;;;;7.22;4.82;;;2.40;72.10;;;1.43;57.27;94460.41;5035442;28;20293;-85
2022/01/08 03:56:40;;;;;;;8.77;5.22;;;2.50;72.20;;;1.46;57.49;94458.50;5019175;28;20219;-86
2022/01/08 03:59:07;;;;;;;7.05;5.05;;;2.50;72.10;;;1.48;57.31;94456.56;5025974;28;20203;-86
2022/01/08 04:01:34;;;;;;;8.93;5.80;;;2.40;72.10;;;1.47;57.34;94450.59;5022806;28;20215;-85
2022/01/08 04:04:01;;;;;;;7.85;5.60;;;2.50;72.10;;;1.46;57.76;94443.78;5022851;28;20287;-84
2022/01/08 04:06:28;;;;;;;7.38;5.18;;;2.50;72.10;;;1.47;57.49;94439.44;5055434;28;20247;-85
2022/01/08 04:08:57;;;;;;;7.53;4.97;;;2.50;72.00;;;1.40;57.43;94437.47;5032854;28;20191;-85
2022/01/08 04:11:26;;;;;;;44.35;15.57;;;2.50;72.00;;;1.42;57.39;94443.28;5056022;28;20242;-85
2022/01/08 04:13:55;;;;;;;21.27;10.45;;;2.50;71.90;;;1.34;57.03;94434.63;5040164;28;20261;-85
2022/01/08 04:16:29;;;;;;;14.25;7.25;;;2.50;71.90;;;1.31;57.04;94438.31;5040098;28;20215;-85
2022/01/08 04:18:58;;;;;;;11.43;6.13;;;2.50;71.80;;;1.26;57.02;94437.97;5038978;28;20186;-86
2022/01/08 04:23:56;;;;;;;9.55;5.53;;;2.40;71.80;;;1.15;57.44;94430.41;5053677;28;20198;-84
2022/01/08 04:26:24;;;;;;;8.25;5.60;;;2.40;71.80;;;1.11;57.45;94440.22;5055908;28;20571;-85
2022/01/08 04:28:55;;;;;;;8.93;5.20;;;2.30;71.70;;;1.09;57.41;94439.56;5036609;28;20708;-85
2022/01/08 04:31:24;;;;;;;7.22;5.13;;;2.30;71.80;;;1.03;57.49;94435.78;5055800;28;20625;-84
2022/01/08 04:33:53;;;;;;;7.10;5.10;;;2.20;71.70;;;0.98;57.50;94426.84;5055855;28;20611;-84
2022/01/08 04:36:21;;;;;;;7.97;5.70;;;2.20;71.70;;;0.93;57.59;94433.25;5039273;28;20241;-84
2022/01/08 04:38:48;;;;;;;8.38;5.75;;;2.20;71.70;;;0.87;57.69;94441.56;5041198;28;20215;-85
2022/01/08 04:41:16;;;;;;;8.05;5.32;;;2.10;71.60;;;0.84;57.82;94428.13;5038190;28;20281;-84
2022/01/08 04:43:43;;;;;;;8.60;5.50;;;2.10;71.60;;;0.79;57.57;94436.31;5039815;28;20199;-85
2022/01/08 04:46:12;;;;;;;7.53;5.22;;;2.00;71.60;;;0.75;57.50;94434.97;5055624;28;20222;-85
2022/01/08 04:48:39;;;;;;;8.57;5.50;;;2.00;71.70;;;0.71;57.60;94437.03;5055488;28;20208;-85
2022/01/08 04:51:06;;;;;;;7.43;5.13;;;1.90;71.70;;;0.67;57.45;94438.25;5055250;28;20207;-84
2022/01/08 04:53:34;;;;;;;7.88;5.32;;;1.90;71.70;;;0.65;57.51;94442.78;5054687;28;20192;-84
2022/01/08 04:56:01;;;;;;;8.43;5.43;;;1.90;71.80;;;0.60;57.60;94435.44;5037994;28;20314;-84
2022/01/08 04:58:28;;;;;;;9.30;5.65;;;1.80;71.80;;;0.59;57.35;94423.50;5051883;28;20208;-84
2022/01/08 05:00:56;;;;;;;8.75;5.90;;;1.80;71.80;;;0.58;57.29;94426.22;5055185;28;20235;-84
2022/01/08 05:03:24;;;;;;;9.10;5.75;;;1.70;71.80;;;0.56;57.45;94431.53;5070716;28;20195;-85
2022/01/08 05:05:51;;;;;;;8.88;5.30;;;1.70;71.90;;;0.51;57.65;94425.97;5037405;28;20223;-85
2022/01/08 05:08:18;;;;;;;10.23;5.38;;;1.80;72.00;;;0.53;57.82;94431.81;5033877;28;20203;-85
2022/01/08 05:10:45;;;;;;;9.60;6.07;;;1.70;71.90;;;0.51;57.67;94418.22;5050463;28;20295;-85
2022/01/08 05:13:12;;;;;;;10.18;6.00;;;1.70;71.90;;;0.47;57.68;94406.56;5033630;28;20207;-86
2022/01/08 05:15:40;;;;;;;10.10;6.10;;;1.60;71.90;;;0.44;57.43;94409.44;5050991;28;20765;-86
2022/01/08 05:18:09;;;;;;;10.95;6.40;;;1.70;72.00;;;0.43;57.65;94416.38;5036448;28;20221;-84
2022/01/08 05:20:40;;;;;;;9.60;5.75;;;1.60;71.90;;;0.38;57.55;94413.41;5054594;28;20239;-86
2022/01/08 05:23:08;;;;;;;18.52;9.77;;;1.60;71.90;;;0.38;57.46;94415.16;5055784;28;20430;-86
2022/01/08 05:25:35;;;;;;;21.27;11.20;;;1.60;71.90;;;0.35;57.60;94415.44;5039748;28;20276;-85
2022/01/08 05:28:03;;;;;;;28.77;14.63;;;1.50;71.90;;;0.30;57.74;94411.50;5039302;28;20223;-85
2022/01/08 05:30:31;;;;;;;16.52;9.77;;;1.50;71.90;;;0.27;57.70;94416.13;5071506;28;20219;-85
2022/01/08 05:32:59;;;;;;;14.15;8.23;;;1.50;71.90;;;0.23;57.94;94401.91;5039296;28;20210;-86
2022/01/08 05:35:29;;;;;;;12.30;7.45;;;1.50;71.90;;;0.18;57.73;94398.94;5039465;28;20257;-85
2022/01/08 05:37:56;;;;;;;12.60;7.75;;;1.40;71.90;;;0.14;57.92;94408.72;5039123;28;20660;-85
2022/01/08 05:40:24;;;;;;;13.10;7.63;;;1.40;72.70;;;0.08;57.60;94412.66;5040989;28;20310;-85
2022/01/08 05:42:52;;;;;;;13.52;7.70;;;1.30;71.80;;;0.03;57.83;94412.28;5057579;28;20683;-86
2022/01/08 05:45:19;;;;;;;17.58;10.23;;;1.30;71.80;;;-0.06;57.66;94400.22;5073607;28;20261;-85
2022/01/08 05:47:46;;;;;;;16.80;10.50;;;1.30;71.80;;;-0.10;57.94;94402.25;5056630;28;20700;-86
2022/01/08 05:50:14;;;;;;;25.65;14.05;;;1.20;71.80;;;-0.10;58.12;94404.84;5056229;28;20306;-86
2022/01/08 05:52:41;;;;;;;15.80;9.45;;;1.20;71.90;;;-0.13;58.60;94407.72;5040538;28;20231;-85
2022/01/08 05:55:09;;;;;;;16.75;9.30;;;1.20;72.10;;;-0.08;58.38;94418.41;5040250;28;20257;-85
2022/01/08 05:57:36;;;;;;;16.42;9.45;;;1.20;72.20;;;-0.04;58.68;94417.19;5040288;28;20199;-85
2022/01/08 06:00:07;;;;;;;33.33;16.88;;;1.10;72.20;;;-0.03;58.33;94410.25;5040399;28;20251;-85
2022/01/08 06:02:38;;;;;;;36.20;18.02;;;1.10;72.50;;;0.00;58.58;94417.72;5057237;28;20195;-86
2022/01/08 06:05:07;;;;;;;20.83;12.13;;;1.20;72.60;;;0.08;58.74;94422.97;5040423;28;20223;-86
2022/01/08 06:07:34;;;;;;;15.00;9.27;;;1.20;72.70;;;0.10;58.92;94415.94;5055370;28;20278;-85
2022/01/08 06:10:03;;;;;;;15.68;9.02;;;1.20;72.70;;;0.20;58.88;94417.69;5056807;28;20242;-86
2022/01/08 06:12:31;;;;;;;28.50;13.68;;;1.20;72.80;;;0.18;58.59;94410.06;5056385;28;20195;-86
2022/01/08 06:14:58;;;;;;;21.88;11.32;;;1.20;72.80;;;0.28;58.49;94412.59;5036301;28;20689;-85
2022/01/08 06:17:25;;;;;;;49.78;20.48;;;1.30;72.70;;;0.27;58.54;94405.81;5029832;28;20274;-85
2022/01/08 06:19:53;;;;;;;24.23;12.90;;;1.30;72.80;;;0.35;58.70;94405.13;5036288;28;20281;-85
2022/01/08 06:22:20;;;;;;;23.13;12.63;;;1.40;72.90;;;0.41;59.13;94415.69;5038136;28;20234;-84
2022/01/08 06:24:47;;;;;;;28.17;15.07;;;1.40;73.00;;;0.50;58.92;94410.63;5052977;28;20746;-85
2022/01/08 06:27:14;;;;;;;20.20;12.02;;;1.40;73.00;;;0.57;58.99;94401.38;5056205;28;20215;-84
2022/01/08 06:29:42;;;;;;;15.13;8.90;;;1.50;73.20;;;0.61;58.93;94400.13;5056168;28;20219;-85
2022/01/08 06:32:09;;;;;;;31.45;16.60;;;1.60;73.20;;;0.74;58.73;94410.13;5039936;28;20227;-85
2022/01/08 06:34:37;;;;;;;14.40;9.10;;;1.60;73.30;;;0.80;58.66;94406.97;5056092;28;20191;-85
2022/01/08 06:37:05;;;;;;;11.75;7.60;;;1.70;73.30;;;0.78;58.79;94385.63;5055607;28;20200;-85
2022/01/08 06:39:32;;;;;;;11.73;7.50;;;1.70;73.20;;;0.91;58.41;94400.78;5039786;28;20207;-85
2022/01/08 06:41:59;;;;;;;9.70;6.10;;;1.80;73.30;;;0.93;58.43;94398.88;5055029;28;20191;-85
2022/01/08 06:44:26;;;;;;;43.47;17.20;;;1.80;73.10;;;0.95;58.69;94391.78;5035134;28;20192;-86
2022/01/08 06:46:53;;;;;;;16.88;9.00;;;1.90;73.20;;;0.97;58.52;94394.25;5048569;28;20281;-85
2022/01/08 06:49:20;;;;;;;15.75;9.10;;;1.90;73.10;;;0.94;58.58;94392.75;5039398;28;20203;-86
2022/01/08 06:51:50;;;;;;;52.63;18.30;;;1.90;73.10;;;0.94;58.67;94395.31;5003753;28;20212;-85
2022/01/08 06:54:17;;;;;;;113.80;35.08;;;1.90;73.10;;;1.05;58.56;94402.06;5036235;28;20627;-86
2022/01/08 06:56:44;;;;;;;68.28;23.40;;;2.00;73.30;;;1.03;59.02;94389.28;5036164;28;20200;-86
2022/01/08 06:59:11;;;;;;;38.10;15.35;;;2.00;73.20;;;1.07;58.71;94392.41;5021938;28;20224;-86
2022/01/08 07:01:38;;;;;;;20.27;10.65;;;2.10;73.30;;;1.11;58.60;94397.13;5036251;28;20262;-87
2022/01/08 07:04:06;;;;;;;21.92;11.07;;;2.10;73.30;;;1.18;58.69;94410.25;5056110;28;20653;-87
2022/01/08 07:06:34;;;;;;;29.00;15.45;;;2.10;73.30;;;1.25;58.52;94415.66;5039383;28;20219;-88
2022/01/08 07:09:01;;;;;;;17.50;10.82;;;2.20;73.30;;;1.30;58.88;94420.41;5038938;28;20199;-88
2022/01/08 07:11:29;;;;;;;16.77;9.85;;;2.20;73.30;;;1.31;58.80;94409.91;5055787;28;20223;-87
2022/01/08 07:13:57;;;;;;;22.55;14.25;;;2.30;73.40;;;1.38;58.59;94407.53;5039007;28;20234;-87
2022/01/08 07:16:29;;;;;;;20.80;13.25;;;2.30;73.40;;;1.40;58.44;94405.63;5039992;28;20223;-87
2022/01/08 07:18:56;;;;;;;17.38;10.48;;;2.30;73.20;;;1.38;58.11;94410.13;5056084;28;20198;-86
2022/01/08 07:21:23;;;;;;;10.63;8.32;;;2.30;73.10;;;1.31;58.25;94409.91;5055714;28;20306;-87
2022/01/08 07:23:53;;;;;;;10.00;6.63;;;2.30;73.80;;;1.22;58.35;94409.03;5040051;28;20195;-87
2022/01/08 07:26:21;;;;;;;9.65;6.30;;;2.30;73.60;;;1.12;57.93;94408.25;5038651;28;20223;-86
2022/01/08 07:28:48;;;;;;;11.82;7.53;;;2.30;72.70;;;1.03;58.25;94420.28;5055582;28;20649;-86
2022/01/08 07:31:16;;;;;;;9.63;6.82;;;2.30;72.60;;;0.93;58.42;94412.59;5051780;28;20212;-85
2022/01/08 07:33:43;;;;;;;17.33;10.77;;;2.20;72.40;;;0.88;58.02;94424.31;5051982;28;20298;-86
2022/01/08 07:36:11;;;;;;;16.73;10.55;;;2.20;72.30;;;0.68;58.14;94408.13;5041471;28;20252;-88
2022/01/08 07:38:38;;;;;;;13.43;8.75;;;2.10;72.20;;;0.57;57.91;94415.06;5042786;28;20242;-86
2022/01/08 07:41:07;;;;;;;11.95;7.90;;;2.00;72.10;;;0.48;58.11;94419.31;5055508;28;20808;-85
2022/01/08 07:43:34;;;;;;;12.52;7.57;;;1.90;72.00;;;0.40;58.21;94428.72;5055966;28;20278;-85
2022/01/08 07:46:02;;;;;;;11.88;7.63;;;1.80;71.90;;;0.28;58.08;94428.09;5038593;28;20218;-85
2022/01/08 07:48:29;;;;;;;13.93;8.18;;;1.70;71.90;;;0.19;58.22;94431.53;5039575;28;20258;-85
2022/01/08 07:50:56;;;;;;;15.93;8.90;;;1.70;72.00;;;0.11;58.06;94425.28;5038887;28;20269;-84
2022/01/08 07:53:24;;;;;;;14.50;9.00;;;1.60;72.00;;;0.05;58.18;94432.75;5037724;28;20199;-85
2022/01/08 07:55:51;;;;;;;14.25;9.27;;;1.50;72.00;;;-0.02;58.23;94433.31;5057995;28;20617;-85
2022/01/08 07:58:20;;;;;;;15.18;9.25;;;1.40;72.00;;;-0.09;58.21;94423.72;5059121;28;20199;-86
2022/01/08 08:00:48;;;;;;;15.07;9.27;;;1.30;72.00;;;-0.15;58.28;94425.06;5041847;28;20241;-85
2022/01/08 08:03:17;;;;;;;19.33;14.48;;;1.20;72.10;;;-0.20;58.22;94428.03;5056766;28;20187;-84
2022/01/08 08:05:45;;;;;;;18.92;13.38;;;1.20;72.10;;;-0.25;58.33;94427.66;5057033;28;20314;-84
2022/01/08 08:08:17;;;;;;;17.13;11.27;;;1.10;72.20;;;-0.26;58.26;94417.50;5056922;28;20744;-84
2022/01/08 08:10:50;;;;;;;18.70;10.80;;;1.10;72.40;;;-0.34;58.65;94410.47;5057562;28;20300;-84
2022/01/08 08:13:20;;;;;;;17.83;10.40;;;1.10;72.40;;;-0.29;58.47;94420.34;5047025;28;20250;-83
2022/01/08 08:15:48;;;;;;;15.90;10.00;;;1.00;72.40;;;-0.35;58.37;94421.72;5029891;28;20218;-84
2022/01/08 08:18:15;;;;;;;16.60;9.60;;;1.00;72.50;;;-0.30;58.44;94423.88;5041647;28;20231;-84
2022/01/08 08:20:42;;;;;;;19.52;11.30;;;0.90;72.60;;;-0.29;58.53;94431.47;5058334;28;20218;-84
2022/01/08 08:23:10;;;;;;;17.35;9.68;;;0.90;72.70;;;-0.28;59.03;94430.53;5041632;28;20601;-87
2022/01/08 08:25:39;;;;;;;15.43;9.55;;;0.90;72.90;;;-0.17;58.70;94435.53;5038744;28;20747;-86
2022/01/08 08:28:07;;;;;;;17.10;9.85;;;0.90;73.00;;;-0.10;58.75;94440.91;5022276;28;20244;-86
2022/01/08 08:30:35;;;;;;;18.25;10.57;;;0.90;73.10;;;-0.04;58.59;94437.81;5052175;28;20230;-86
2022/01/08 08:33:04;;;;;;;18.00;10.35;;;0.90;73.10;;;0.02;58.62;94444.16;5074572;28;20699;-85
2022/01/08 08:35:32;;;;;;;15.38;9.57;;;1.00;73.20;;;0.10;58.64;94436.56;5058168;28;20215;-85
2022/01/08 08:38:00;;;;;;;17.60;10.27;;;1.00;73.30;;;0.14;58.78;94434.50;5057893;28;20214;-85
2022/01/08 08:40:27;;;;;;;120.00;48.85;;;1.00;73.30;;;0.21;58.62;94434.75;5056803;28;20284;-86
2022/01/08 08:42:54;;;;;;;45.38;24.17;;;1.10;73.40;;;0.30;58.22;94439.09;5057870;28;20609;-86
2022/01/08 08:45:23;;;;;;;48.25;25.38;;;1.10;73.40;;;0.37;58.67;94434.19;5057767;28;20239;-86
2022/01/08 08:47:50;;;;;;;30.25;17.05;;;1.20;73.50;;;0.41;58.31;94438.91;5053361;28;20228;-86
2022/01/08 08:50:18;;;;;;;25.85;16.10;;;1.30;73.60;;;0.45;58.47;94434.28;5057712;28;20217;-87
2022/01/08 08:52:47;;;;;;;20.25;12.85;;;1.30;73.60;;;0.57;58.74;94445.25;5058045;28;20203;-87
2022/01/08 08:55:16;;;;;;;19.95;12.43;;;1.30;73.50;;;0.64;58.95;94444.53;5041274;28;20230;-86
2022/01/08 08:57:44;;;;;;;16.08;10.55;;;1.40;73.60;;;0.69;58.36;94436.34;5042097;28;20227;-86
2022/01/08 09:00:13;;;;;;;14.95;10.30;;;1.50;73.70;;;0.72;58.33;94430.09;5041035;28;20225;-86
2022/01/08 09:02:42;;;;;;;16.60;10.20;;;1.50;73.70;;;0.82;58.58;94438.63;5058677;28;20214;-87
2022/01/08 09:05:10;;;;;;;18.67;11.52;;;1.60;73.80;;;0.93;58.37;94442.78;5041593;28;20564;-86
2022/01/08 09:07:38;;;;;;;16.70;10.77;;;1.60;73.80;;;1.01;58.72;94435.09;5057899;28;20223;-87
2022/01/08 09:10:09;;;;;;;16.48;10.00;;;1.70;73.90;;;1.07;58.51;94429.34;5057920;28;20575;-86
2022/01/08 09:12:39;;;;;;;15.90;8.65;;;1.80;74.00;;;1.10;58.51;94426.50;5040839;28;20203;-87
2022/01/08 09:15:09;;;;;;;12.68;7.88;;;1.90;74.10;;;1.26;58.74;94432.78;5041233;28;20215;-87
2022/01/08 09:17:40;;;;;;;13.52;8.18;;;1.90;74.10;;;1.30;58.80;94425.56;5041096;28;20210;-86
2022/01/08 09:20:09;;;;;;;13.00;8.02;;;2.00;74.20;;;1.37;58.83;94426.59;5057878;28;20226;-87
2022/01/08 09:22:36;;;;;;;11.98;7.88;;;2.00;74.20;;;1.52;58.60;94435.44;5040523;28;20657;-87
2022/01/08 09:25:06;;;;;;;15.73;8.75;;;2.10;74.30;;;1.63;58.75;94429.25;5057015;28;20310;-86
2022/01/08 09:27:34;;;;;;;12.35;7.75;;;2.20;74.30;;;1.66;58.71;94425.53;5040790;28;20556;-87
2022/01/08 09:30:04;;;;;;;13.68;8.25;;;2.30;74.40;;;1.76;58.63;94413.38;5057064;28;20207;-86
2022/01/08 09:32:31;;;;;;;14.07;7.55;;;2.40;74.50;;;1.95;58.82;94414.13;5057724;28;20204;-86
2022/01/08 09:34:59;;;;;;;13.20;7.30;;;2.50;75.00;;;2.04;58.73;94406.28;5039491;28;20227;-87
2022/01/08 09:37:26;;;;;;;13.85;7.53;;;2.50;74.40;;;2.10;59.11;94407.47;5041310;28;20199;-89
2022/01/08 09:39:54;;;;;;;12.95;7.82;;;2.70;74.70;;;2.25;58.76;94410.28;5037197;28;20313;-86
2022/01/08 09:42:21;;;;;;;13.30;8.13;;;2.70;74.60;;;2.33;58.92;94396.59;5057052;28;20223;-86
2022/01/08 09:44:49;;;;;;;12.75;8.13;;;2.80;74.60;;;2.42;58.94;94397.44;5038991;28;20456;-87
2022/01/08 09:47:17;;;;;;;13.77;8.18;;;2.90;74.70;;;2.53;58.75;94403.16;5032379;28;20239;-85
2022/01/08 09:49:44;;;;;;;13.18;8.13;;;3.00;74.70;;;2.63;58.95;94404.81;5046382;28;20744;-86
2022/01/08 09:52:12;;;;;;;14.48;7.97;;;3.10;74.70;;;2.67;58.71;94393.19;5052879;28;20278;-89
2022/01/08 09:54:40;;;;;;;11.93;6.72;;;3.20;74.70;;;2.79;58.94;94394.50;5040093;28;20223;-87
2022/01/08 09:57:09;;;;;;;10.02;6.47;;;3.30;74.80;;;2.89;58.99;94391.78;5056312;28;20657;-89
2022/01/08 09:59:36;;;;;;;9.50;5.95;;;3.40;74.90;;;3.09;59.41;94392.34;5036028;28;20583;-84
2022/01/08 10:02:04;;;;;;;7.28;5.22;;;3.50;75.00;;;3.26;59.45;94382.00;5055714;28;20265;-87
2022/01/08 10:04:35;;;;;;;7.43;5.10;;;3.60;75.30;;;3.45;59.16;94371.31;5039734;28;20501;-86
2022/01/08 10:07:19;;;;;;;6.72;4.88;;;3.80;75.40;;;3.68;58.70;94373.28;5056687;28;20199;-88
2022/01/08 10:10:15;;;;;;;7.82;5.20;;;4.00;75.20;;;3.80;58.53;94378.97;5056285;28;20227;-86
2022/01/08 10:12:53;;;;;;;6.97;4.93;;;4.10;75.00;;;3.86;58.54;94370.53;5056518;28;20979;-87
2022/01/08 10:18:25;;;;;;;5.30;4.10;;;4.30;74.50;;;3.90;58.46;94353.66;5058360;28;20657;-83
2022/01/08 10:20:55;;;;;;;6.20;4.60;;;4.40;74.20;;;3.91;58.62;94349.28;5056059;28;20215;-84
2022/01/08 10:23:27;;;;;;;6.47;4.20;;;4.50;74.20;;;3.93;58.18;94355.09;5036907;28;20195;-83
2022/01/08 10:26:10;;;;;;;5.65;4.40;;;4.50;74.00;;;3.96;58.05;94357.38;5056087;28;20746;-85
2022/01/08 10:28:56;;;;;;;5.13;3.50;;;4.60;74.10;;;4.01;58.26;94349.91;5038983;28;20215;-84
2022/01/08 10:31:34;;;;;;;5.25;3.65;;;4.70;74.00;;;4.01;58.15;94350.69;5052000;28;20318;-84
2022/01/08 10:34:01;;;;;;;5.93;3.80;;;4.70;73.90;;;4.06;58.17;94352.00;5056051;28;20244;-85
2022/01/08 10:36:40;;;;;;;4.90;4.05;;;4.70;73.80;;;4.09;57.78;94349.06;5072176;28;20218;-85
2022/01/08 10:39:11;;;;;;;6.18;4.80;;;4.70;73.80;;;4.13;58.04;94345.97;5072042;28;20195;-85
2022/01/08 10:41:44;;;;;;;5.10;4.18;;;4.70;73.70;;;4.19;58.36;94344.53;5055298;28;20215;-86
2022/01/08 10:44:22;;;;;;;6.00;4.45;;;4.80;73.70;;;4.25;58.34;94348.25;5055564;28;20608;-84
2022/01/08 10:46:54;;;;;;;6.88;5.53;;;4.80;73.80;;;4.31;58.28;94332.00;5051452;28;20227;-83
2022/01/08 10:49:34;;;;;;;6.45;4.38;;;4.90;73.90;;;4.36;57.99;94331.47;5068274;28;20269;-83
2022/01/08 10:52:06;;;;;;;8.02;3.88;;;4.90;73.90;;;4.44;57.88;94329.69;5019080;28;20386;-84
2022/01/08 10:54:37;;;;;;;4.63;3.33;;;5.00;74.10;;;4.47;58.04;94324.13;5051890;28;20199;-84